South Madison, Ohio
Current Conditions -  °F | °C
As of 2:53 AM on Thursday 29 Jan 2015 (Local Time) from KHZY Reporting Station
Broken Clouds Broken Clouds  
Wind Chill: 12°   Ceiling: 11000
Heat Index: 23°   Visibility: 10mi
Dew Point: 10°   Wind: 12mph
Humidity: 58%   Direction: 180°S
Pressure: 30.17"   Gusts: NA
Location:  41.7879°N, 81.0546°W
Report Text: KHZY 290753Z AUTO 18010KT 10SM BKN110 M05/M12 A3017 RMK AO2 SLP228 T10501122
Loading
Personal Weather Stations






























Interactive Weather Map New forecast layout! Learn more

10-Day Weather Forecast

Advertisements
Track Severe Weather on mobile